sensor_id;sensor_type;location;lat;lon;timestamp;P1;durP1;ratioP1;P2;durP2;ratioP2
36833;SDS011;48003;52.084;5.224;2023-03-31T00:00:50;16.2;;;3.5;;
36833;SDS011;48003;52.084;5.224;2023-03-31T00:02:27;12.8;;;2.9;;
36833;SDS011;48003;52.084;5.224;2023-03-31T00:04:03;13.7;;;3.0;;
36833;SDS011;48003;52.084;5.224;2023-03-31T00:07:16;15.0;;;3.3;;
36833;SDS011;48003;52.084;5.224;2023-03-31T00:08:52;14.1;;;3.7;;
36833;SDS011;48003;52.084;5.224;2023-03-31T00:10:29;13.9;;;3.3;;
36833;SDS011;48003;52.084;5.224;2023-03-31T00:12:07;12.9;;;3.2;;
36833;SDS011;48003;52.084;5.224;2023-03-31T00:15:19;11.7;;;3.1;;
36833;SDS011;48003;52.084;5.224;2023-03-31T00:16:55;12.1;;;2.9;;
36833;SDS011;48003;52.084;5.224;2023-03-31T00:18:32;12.4;;;2.8;;
36833;SDS011;48003;52.084;5.224;2023-03-31T00:21:45;11.9;;;3.0;;
36833;SDS011;48003;52.084;5.224;2023-03-31T00:23:23;10.8;;;3.0;;
36833;SDS011;48003;52.084;5.224;2023-03-31T00:24:59;12.2;;;3.3;;
36833;SDS011;48003;52.084;5.224;2023-03-31T00:26:35;17.2;;;3.1;;
36833;SDS011;48003;52.084;5.224;2023-03-31T00:29:49;16.3;;;3.3;;
36833;SDS011;48003;52.084;5.224;2023-03-31T00:31:26;13.6;;;3.3;;
36833;SDS011;48003;52.084;5.224;2023-03-31T00:33:03;14.3;;;3.3;;
36833;SDS011;48003;52.084;5.224;2023-03-31T00:36:16;13.2;;;3.1;;
36833;SDS011;48003;52.084;5.224;2023-03-31T00:37:53;11.3;;;3.1;;
36833;SDS011;48003;52.084;5.224;2023-03-31T00:39:29;13.6;;;3.1;;
36833;SDS011;48003;52.084;5.224;2023-03-31T00:42:42;10.1;;;3.0;;
36833;SDS011;48003;52.084;5.224;2023-03-31T00:44:19;11.1;;;2.7;;
36833;SDS011;48003;52.084;5.224;2023-03-31T00:46:02;11.8;;;3.1;;
36833;SDS011;48003;52.084;5.224;2023-03-31T00:47:46;11.0;;;2.7;;
36833;SDS011;48003;52.084;5.224;2023-03-31T00:51:06;14.6;;;3.0;;
36833;SDS011;48003;52.084;5.224;2023-03-31T00:52:42;11.1;;;2.9;;
36833;SDS011;48003;52.084;5.224;2023-03-31T00:54:20;12.4;;;2.6;;
36833;SDS011;48003;52.084;5.224;2023-03-31T00:56:01;14.2;;;3.4;;
36833;SDS011;48003;52.084;5.224;2023-03-31T00:59:22;11.4;;;2.9;;
36833;SDS011;48003;52.084;5.224;2023-03-31T01:01:03;12.5;;;2.8;;
36833;SDS011;48003;52.084;5.224;2023-03-31T01:02:39;12.5;;;2.8;;
36833;SDS011;48003;52.084;5.224;2023-03-31T01:04:16;13.9;;;2.8;;
36833;SDS011;48003;52.084;5.224;2023-03-31T01:07:34;11.9;;;2.7;;
36833;SDS011;48003;52.084;5.224;2023-03-31T01:09:16;9.31;;;2.1;;
36833;SDS011;48003;52.084;5.224;2023-03-31T01:10:54;10.6;;;2.5;;
36833;SDS011;48003;52.084;5.224;2023-03-31T01:14:15;12.6;;;2.31;;
36833;SDS011;48003;52.084;5.224;2023-03-31T01:15:51;11.0;;;2.6;;
36833;SDS011;48003;52.084;5.224;2023-03-31T01:17:28;12.6;;;2.7;;
36833;SDS011;48003;52.084;5.224;2023-03-31T01:19:06;12.3;;;2.4;;
36833;SDS011;48003;52.084;5.224;2023-03-31T01:26:02;12.1;;;2.4;;
36833;SDS011;48003;52.084;5.224;2023-03-31T01:28:08;9.4;;;2.4;;
36833;SDS011;48003;52.084;5.224;2023-03-31T01:30:00;10.7;;;2.31;;
36833;SDS011;48003;52.084;5.224;2023-03-31T01:32:12;13.3;;;2.5;;
36833;SDS011;48003;52.084;5.224;2023-03-31T01:35:16;11.9;;;2.5;;
36833;SDS011;48003;52.084;5.224;2023-03-31T01:39:44;9.21;;;2.7;;
36833;SDS011;48003;52.084;5.224;2023-03-31T01:41:47;10.4;;;2.6;;
36833;SDS011;48003;52.084;5.224;2023-03-31T01:43:32;10.1;;;2.8;;
36833;SDS011;48003;52.084;5.224;2023-03-31T01:45:18;13.2;;;3.4;;
36833;SDS011;48003;52.084;5.224;2023-03-31T01:47:05;13.2;;;3.4;;
36833;SDS011;48003;52.084;5.224;2023-03-31T01:48:48;13.5;;;3.3;;
36833;SDS011;48003;52.084;5.224;2023-03-31T01:50:34;11.0;;;3.1;;
36833;SDS011;48003;52.084;5.224;2023-03-31T01:54:01;12.0;;;3.9;;
36833;SDS011;48003;52.084;5.224;2023-03-31T01:55:46;10.6;;;3.5;;
36833;SDS011;48003;52.084;5.224;2023-03-31T01:57:32;11.9;;;3.8;;
36833;SDS011;48003;52.084;5.224;2023-03-31T01:59:13;10.9;;;3.5;;
36833;SDS011;48003;52.084;5.224;2023-03-31T02:00:53;12.2;;;4.41;;
36833;SDS011;48003;52.084;5.224;2023-03-31T02:04:19;10.6;;;3.6;;
36833;SDS011;48003;52.084;5.224;2023-03-31T02:05:58;10.3;;;3.5;;
36833;SDS011;48003;52.084;5.224;2023-03-31T02:07:45;15.5;;;3.7;;
36833;SDS011;48003;52.084;5.224;2023-03-31T02:09:27;12.6;;;3.8;;
36833;SDS011;48003;52.084;5.224;2023-03-31T02:12:45;14.2;;;4.2;;
36833;SDS011;48003;52.084;5.224;2023-03-31T02:14:25;10.9;;;3.4;;
36833;SDS011;48003;52.084;5.224;2023-03-31T02:16:07;15.3;;;4.3;;
36833;SDS011;48003;52.084;5.224;2023-03-31T02:17:50;13.3;;;3.9;;
36833;SDS011;48003;52.084;5.224;2023-03-31T02:21:10;11.7;;;4.0;;
36833;SDS011;48003;52.084;5.224;2023-03-31T02:22:47;14.3;;;3.6;;
36833;SDS011;48003;52.084;5.224;2023-03-31T02:24:28;15.8;;;4.1;;
36833;SDS011;48003;52.084;5.224;2023-03-31T02:26:09;14.8;;;4.61;;
36833;SDS011;48003;52.084;5.224;2023-03-31T02:29:31;16.5;;;4.0;;
36833;SDS011;48003;52.084;5.224;2023-03-31T02:31:12;12.4;;;3.7;;
36833;SDS011;48003;52.084;5.224;2023-03-31T02:33:01;13.3;;;3.5;;
36833;SDS011;48003;52.084;5.224;2023-03-31T02:34:38;11.1;;;3.7;;
36833;SDS011;48003;52.084;5.224;2023-03-31T02:37:50;14.0;;;3.9;;
36833;SDS011;48003;52.084;5.224;2023-03-31T02:39:27;11.2;;;3.5;;
36833;SDS011;48003;52.084;5.224;2023-03-31T02:41:08;15.1;;;3.9;;
36833;SDS011;48003;52.084;5.224;2023-03-31T02:45:59;16.2;;;3.6;;
36833;SDS011;48003;52.084;5.224;2023-03-31T02:47:36;11.0;;;3.5;;
36833;SDS011;48003;52.084;5.224;2023-03-31T02:49:12;15.5;;;3.9;;
36833;SDS011;48003;52.084;5.224;2023-03-31T02:53:49;12.9;;;3.5;;
36833;SDS011;48003;52.084;5.224;2023-03-31T02:55:45;11.9;;;3.3;;
36833;SDS011;48003;52.084;5.224;2023-03-31T02:57:38;14.3;;;3.3;;
36833;SDS011;48003;52.084;5.224;2023-03-31T03:00:36;17.11;;;4.1;;
36833;SDS011;48003;52.084;5.224;2023-03-31T03:02:28;16.61;;;3.8;;
36833;SDS011;48003;52.084;5.224;2023-03-31T03:04:25;15.6;;;3.7;;
36833;SDS011;48003;52.084;5.224;2023-03-31T03:06:41;14.8;;;3.2;;
36833;SDS011;48003;52.084;5.224;2023-03-31T03:08:28;14.0;;;3.7;;
36833;SDS011;48003;52.084;5.224;2023-03-31T03:10:19;12.0;;;3.3;;
36833;SDS011;48003;52.084;5.224;2023-03-31T03:12:10;14.4;;;3.7;;
36833;SDS011;48003;52.084;5.224;2023-03-31T03:15:42;13.8;;;3.6;;
36833;SDS011;48003;52.084;5.224;2023-03-31T03:17:23;12.0;;;3.2;;
36833;SDS011;48003;52.084;5.224;2023-03-31T03:19:05;14.2;;;3.5;;
36833;SDS011;48003;52.084;5.224;2023-03-31T03:20:42;12.3;;;3.1;;
36833;SDS011;48003;52.084;5.224;2023-03-31T03:22:19;15.1;;;3.4;;
36833;SDS011;48003;52.084;5.224;2023-03-31T03:25:31;13.7;;;3.4;;
36833;SDS011;48003;52.084;5.224;2023-03-31T03:27:07;13.1;;;3.2;;
36833;SDS011;48003;52.084;5.224;2023-03-31T03:28:43;14.7;;;3.6;;
36833;SDS011;48003;52.084;5.224;2023-03-31T03:31:55;17.0;;;3.1;;
36833;SDS011;48003;52.084;5.224;2023-03-31T03:33:31;10.3;;;2.6;;
36833;SDS011;48003;52.084;5.224;2023-03-31T03:35:08;11.2;;;3.3;;
36833;SDS011;48003;52.084;5.224;2023-03-31T03:38:22;10.6;;;2.6;;
36833;SDS011;48003;52.084;5.224;2023-03-31T03:39:58;12.4;;;3.5;;
36833;SDS011;48003;52.084;5.224;2023-03-31T03:41:34;12.9;;;3.0;;
36833;SDS011;48003;52.084;5.224;2023-03-31T03:44:47;12.2;;;2.7;;
36833;SDS011;48003;52.084;5.224;2023-03-31T03:46:23;12.4;;;2.9;;
36833;SDS011;48003;52.084;5.224;2023-03-31T03:48:00;11.8;;;3.0;;
36833;SDS011;48003;52.084;5.224;2023-03-31T03:49:36;11.2;;;2.8;;
36833;SDS011;48003;52.084;5.224;2023-03-31T03:52:48;13.4;;;3.1;;
36833;SDS011;48003;52.084;5.224;2023-03-31T03:54:24;13.8;;;2.9;;
36833;SDS011;48003;52.084;5.224;2023-03-31T03:56:00;12.3;;;2.8;;
36833;SDS011;48003;52.084;5.224;2023-03-31T03:59:14;13.1;;;2.7;;
36833;SDS011;48003;52.084;5.224;2023-03-31T04:00:50;9.81;;;2.8;;
36833;SDS011;48003;52.084;5.224;2023-03-31T04:02:26;13.1;;;2.8;;
36833;SDS011;48003;52.084;5.224;2023-03-31T04:05:38;12.6;;;3.1;;
36833;SDS011;48003;52.084;5.224;2023-03-31T04:07:14;11.8;;;2.5;;
36833;SDS011;48003;52.084;5.224;2023-03-31T04:08:50;10.8;;;2.7;;
36833;SDS011;48003;52.084;5.224;2023-03-31T04:10:26;9.71;;;2.5;;
36833;SDS011;48003;52.084;5.224;2023-03-31T04:13:39;8.81;;;2.1;;
36833;SDS011;48003;52.084;5.224;2023-03-31T04:15:15;9.6;;;2.5;;
36833;SDS011;48003;52.084;5.224;2023-03-31T04:16:51;7.8;;;2.1;;
36833;SDS011;48003;52.084;5.224;2023-03-31T04:20:04;8.1;;;1.8;;
36833;SDS011;48003;52.084;5.224;2023-03-31T04:21:43;6.6;;;1.9;;
36833;SDS011;48003;52.084;5.224;2023-03-31T04:23:20;10.5;;;2.1;;
36833;SDS011;48003;52.084;5.224;2023-03-31T04:26:33;9.0;;;1.6;;
36833;SDS011;48003;52.084;5.224;2023-03-31T04:28:10;9.21;;;1.9;;
36833;SDS011;48003;52.084;5.224;2023-03-31T04:29:46;7.1;;;1.6;;
36833;SDS011;48003;52.084;5.224;2023-03-31T04:31:22;6.6;;;2.21;;
36833;SDS011;48003;52.084;5.224;2023-03-31T04:34:37;9.21;;;2.0;;
36833;SDS011;48003;52.084;5.224;2023-03-31T04:36:13;7.4;;;1.9;;
36833;SDS011;48003;52.084;5.224;2023-03-31T04:37:50;6.9;;;1.8;;
36833;SDS011;48003;52.084;5.224;2023-03-31T04:41:04;8.6;;;2.31;;
36833;SDS011;48003;52.084;5.224;2023-03-31T04:42:40;12.7;;;2.8;;
36833;SDS011;48003;52.084;5.224;2023-03-31T04:44:16;11.2;;;2.31;;
36833;SDS011;48003;52.084;5.224;2023-03-31T04:47:28;8.31;;;2.31;;
36833;SDS011;48003;52.084;5.224;2023-03-31T04:49:04;8.31;;;2.31;;
36833;SDS011;48003;52.084;5.224;2023-03-31T04:50:40;9.4;;;2.0;;
36833;SDS011;48003;52.084;5.224;2023-03-31T04:52:16;9.31;;;2.4;;
36833;SDS011;48003;52.084;5.224;2023-03-31T04:55:28;10.6;;;2.31;;
36833;SDS011;48003;52.084;5.224;2023-03-31T04:57:05;11.5;;;2.7;;
36833;SDS011;48003;52.084;5.224;2023-03-31T04:58:41;9.81;;;2.5;;
36833;SDS011;48003;52.084;5.224;2023-03-31T05:01:56;10.21;;;3.1;;
36833;SDS011;48003;52.084;5.224;2023-03-31T05:03:32;10.7;;;2.7;;
36833;SDS011;48003;52.084;5.224;2023-03-31T05:05:09;9.6;;;2.21;;
36833;SDS011;48003;52.084;5.224;2023-03-31T05:08:21;13.8;;;2.6;;
36833;SDS011;48003;52.084;5.224;2023-03-31T05:09:57;8.4;;;2.4;;
36833;SDS011;48003;52.084;5.224;2023-03-31T05:11:33;10.7;;;2.21;;
36833;SDS011;48003;52.084;5.224;2023-03-31T05:14:46;9.1;;;2.5;;
36833;SDS011;48003;52.084;5.224;2023-03-31T05:16:22;12.1;;;2.21;;
36833;SDS011;48003;52.084;5.224;2023-03-31T05:17:58;9.81;;;2.21;;
36833;SDS011;48003;52.084;5.224;2023-03-31T05:19:35;9.31;;;1.9;;
36833;SDS011;48003;52.084;5.224;2023-03-31T05:22:49;8.5;;;1.9;;
36833;SDS011;48003;52.084;5.224;2023-03-31T05:24:26;9.6;;;2.0;;
36833;SDS011;48003;52.084;5.224;2023-03-31T05:26:03;9.31;;;2.31;;
36833;SDS011;48003;52.084;5.224;2023-03-31T05:29:16;9.5;;;2.1;;
36833;SDS011;48003;52.084;5.224;2023-03-31T05:30:52;10.9;;;1.9;;
36833;SDS011;48003;52.084;5.224;2023-03-31T05:32:28;11.4;;;2.31;;
36833;SDS011;48003;52.084;5.224;2023-03-31T05:35:41;8.1;;;1.8;;
36833;SDS011;48003;52.084;5.224;2023-03-31T05:37:18;7.5;;;1.8;;
36833;SDS011;48003;52.084;5.224;2023-03-31T05:38:55;8.81;;;2.0;;
36833;SDS011;48003;52.084;5.224;2023-03-31T05:40:31;8.9;;;2.1;;
36833;SDS011;48003;52.084;5.224;2023-03-31T05:43:43;11.5;;;2.6;;
36833;SDS011;48003;52.084;5.224;2023-03-31T05:45:19;8.81;;;2.1;;
36833;SDS011;48003;52.084;5.224;2023-03-31T05:46:55;7.4;;;2.21;;
36833;SDS011;48003;52.084;5.224;2023-03-31T05:50:08;10.21;;;2.31;;
36833;SDS011;48003;52.084;5.224;2023-03-31T05:51:45;10.3;;;2.31;;
36833;SDS011;48003;52.084;5.224;2023-03-31T05:53:22;9.71;;;2.21;;
36833;SDS011;48003;52.084;5.224;2023-03-31T05:56:34;12.4;;;2.4;;
36833;SDS011;48003;52.084;5.224;2023-03-31T05:58:10;12.0;;;2.21;;
36833;SDS011;48003;52.084;5.224;2023-03-31T05:59:46;9.5;;;2.1;;
36833;SDS011;48003;52.084;5.224;2023-03-31T06:01:22;7.5;;;1.8;;
36833;SDS011;48003;52.084;5.224;2023-03-31T06:04:35;11.2;;;2.5;;
36833;SDS011;48003;52.084;5.224;2023-03-31T06:06:11;9.5;;;2.1;;
36833;SDS011;48003;52.084;5.224;2023-03-31T06:07:48;9.0;;;2.31;;
36833;SDS011;48003;52.084;5.224;2023-03-31T06:11:03;8.6;;;1.8;;
36833;SDS011;48003;52.084;5.224;2023-03-31T06:12:40;8.9;;;1.6;;
36833;SDS011;48003;52.084;5.224;2023-03-31T06:14:16;9.1;;;1.9;;
36833;SDS011;48003;52.084;5.224;2023-03-31T06:17:29;7.2;;;1.8;;
36833;SDS011;48003;52.084;5.224;2023-03-31T06:19:06;9.31;;;1.8;;
36833;SDS011;48003;52.084;5.224;2023-03-31T06:20:43;9.5;;;1.6;;
36833;SDS011;48003;52.084;5.224;2023-03-31T06:22:19;8.31;;;1.7;;
36833;SDS011;48003;52.084;5.224;2023-03-31T06:25:31;9.21;;;2.0;;
36833;SDS011;48003;52.084;5.224;2023-03-31T06:27:07;6.9;;;1.8;;
36833;SDS011;48003;52.084;5.224;2023-03-31T06:28:43;8.71;;;1.4;;
36833;SDS011;48003;52.084;5.224;2023-03-31T06:31:55;8.2;;;1.5;;
36833;SDS011;48003;52.084;5.224;2023-03-31T06:33:31;7.7;;;1.6;;
36833;SDS011;48003;52.084;5.224;2023-03-31T06:35:08;10.8;;;1.8;;
36833;SDS011;48003;52.084;5.224;2023-03-31T06:38:19;6.8;;;1.7;;
36833;SDS011;48003;52.084;5.224;2023-03-31T06:39:55;8.31;;;1.6;;
36833;SDS011;48003;52.084;5.224;2023-03-31T06:41:32;7.5;;;1.8;;
36833;SDS011;48003;52.084;5.224;2023-03-31T06:44:44;7.1;;;1.4;;
36833;SDS011;48003;52.084;5.224;2023-03-31T06:46:20;7.2;;;1.6;;
36833;SDS011;48003;52.084;5.224;2023-03-31T06:47:56;6.6;;;1.4;;
36833;SDS011;48003;52.084;5.224;2023-03-31T06:49:32;7.9;;;1.5;;
36833;SDS011;48003;52.084;5.224;2023-03-31T06:52:46;4.41;;;1.2;;
36833;SDS011;48003;52.084;5.224;2023-03-31T06:54:22;6.5;;;1.6;;
36833;SDS011;48003;52.084;5.224;2023-03-31T06:55:58;6.8;;;1.6;;
36833;SDS011;48003;52.084;5.224;2023-03-31T06:59:11;6.5;;;1.3;;
36833;SDS011;48003;52.084;5.224;2023-03-31T07:00:47;4.5;;;1.11;;
36833;SDS011;48003;52.084;5.224;2023-03-31T07:02:23;6.6;;;1.5;;
36833;SDS011;48003;52.084;5.224;2023-03-31T07:05:34;5.5;;;1.2;;
36833;SDS011;48003;52.084;5.224;2023-03-31T07:07:11;5.8;;;1.3;;
36833;SDS011;48003;52.084;5.224;2023-03-31T07:08:47;7.5;;;1.11;;
36833;SDS011;48003;52.084;5.224;2023-03-31T07:10:24;4.7;;;1.11;;
36833;SDS011;48003;52.084;5.224;2023-03-31T07:13:37;6.5;;;1.3;;
36833;SDS011;48003;52.084;5.224;2023-03-31T07:15:14;4.61;;;1.2;;
36833;SDS011;48003;52.084;5.224;2023-03-31T07:16:51;4.61;;;1.0;;
36833;SDS011;48003;52.084;5.224;2023-03-31T07:20:02;6.2;;;1.3;;
36833;SDS011;48003;52.084;5.224;2023-03-31T07:21:40;7.4;;;1.7;;
36833;SDS011;48003;52.084;5.224;2023-03-31T07:23:16;6.9;;;1.4;;
36833;SDS011;48003;52.084;5.224;2023-03-31T07:26:28;5.8;;;1.11;;
36833;SDS011;48003;52.084;5.224;2023-03-31T07:28:05;4.5;;;1.3;;
36833;SDS011;48003;52.084;5.224;2023-03-31T07:29:40;5.11;;;1.2;;
36833;SDS011;48003;52.084;5.224;2023-03-31T07:31:17;5.2;;;1.11;;
36833;SDS011;48003;52.084;5.224;2023-03-31T07:34:29;6.3;;;1.2;;
36833;SDS011;48003;52.084;5.224;2023-03-31T07:36:06;4.41;;;1.3;;
36833;SDS011;48003;52.084;5.224;2023-03-31T07:37:43;5.11;;;1.2;;
36833;SDS011;48003;52.084;5.224;2023-03-31T07:40:58;7.3;;;1.4;;
36833;SDS011;48003;52.084;5.224;2023-03-31T07:42:35;4.8;;;1.2;;
36833;SDS011;48003;52.084;5.224;2023-03-31T07:44:11;5.9;;;1.11;;
36833;SDS011;48003;52.084;5.224;2023-03-31T07:47:23;6.5;;;1.11;;
36833;SDS011;48003;52.084;5.224;2023-03-31T07:49:00;4.5;;;1.2;;
36833;SDS011;48003;52.084;5.224;2023-03-31T07:50:37;7.8;;;1.6;;
36833;SDS011;48003;52.084;5.224;2023-03-31T07:52:13;4.5;;;1.11;;
36833;SDS011;48003;52.084;5.224;2023-03-31T07:55:25;7.1;;;1.4;;
36833;SDS011;48003;52.084;5.224;2023-03-31T07:57:01;5.3;;;1.5;;
36833;SDS011;48003;52.084;5.224;2023-03-31T07:58:37;5.3;;;1.4;;
36833;SDS011;48003;52.084;5.224;2023-03-31T08:01:51;5.5;;;1.5;;
36833;SDS011;48003;52.084;5.224;2023-03-31T08:03:27;5.8;;;1.5;;
36833;SDS011;48003;52.084;5.224;2023-03-31T08:05:03;5.8;;;1.8;;
36833;SDS011;48003;52.084;5.224;2023-03-31T08:08:16;6.8;;;1.7;;
36833;SDS011;48003;52.084;5.224;2023-03-31T08:09:52;6.4;;;1.5;;
36833;SDS011;48003;52.084;5.224;2023-03-31T08:11:28;9.21;;;1.8;;
36833;SDS011;48003;52.084;5.224;2023-03-31T08:14:41;8.4;;;1.9;;
36833;SDS011;48003;52.084;5.224;2023-03-31T08:16:17;5.9;;;1.9;;
36833;SDS011;48003;52.084;5.224;2023-03-31T08:17:53;8.1;;;2.0;;
36833;SDS011;48003;52.084;5.224;2023-03-31T08:19:29;6.6;;;1.9;;
36833;SDS011;48003;52.084;5.224;2023-03-31T08:22:42;7.6;;;2.31;;
36833;SDS011;48003;52.084;5.224;2023-03-31T08:24:19;6.3;;;2.0;;
36833;SDS011;48003;52.084;5.224;2023-03-31T08:26:05;9.1;;;2.4;;
36833;SDS011;48003;52.084;5.224;2023-03-31T08:27:44;7.8;;;2.6;;
36833;SDS011;48003;52.084;5.224;2023-03-31T08:31:01;8.4;;;3.0;;
36833;SDS011;48003;52.084;5.224;2023-03-31T08:32:38;6.3;;;2.4;;
36833;SDS011;48003;52.084;5.224;2023-03-31T08:37:27;9.5;;;2.6;;
36833;SDS011;48003;52.084;5.224;2023-03-31T08:39:04;8.71;;;3.3;;
36833;SDS011;48003;52.084;5.224;2023-03-31T08:44:00;10.6;;;3.3;;
36833;SDS011;48003;52.084;5.224;2023-03-31T08:45:41;9.5;;;3.0;;
36833;SDS011;48003;52.084;5.224;2023-03-31T08:47:21;9.6;;;3.0;;
36833;SDS011;48003;52.084;5.224;2023-03-31T08:49:01;14.9;;;3.6;;
36833;SDS011;48003;52.084;5.224;2023-03-31T08:52:23;10.5;;;3.2;;
36833;SDS011;48003;52.084;5.224;2023-03-31T08:54:08;14.1;;;3.1;;
36833;SDS011;48003;52.084;5.224;2023-03-31T08:55:51;12.7;;;3.4;;
36833;SDS011;48003;52.084;5.224;2023-03-31T08:57:31;15.8;;;3.7;;
36833;SDS011;48003;52.084;5.224;2023-03-31T08:59:16;18.41;;;4.41;;
36833;SDS011;48003;52.084;5.224;2023-03-31T09:02:54;14.4;;;3.6;;
36833;SDS011;48003;52.084;5.224;2023-03-31T09:04:42;13.8;;;3.7;;
36833;SDS011;48003;52.084;5.224;2023-03-31T09:06:47;19.5;;;4.0;;
36833;SDS011;48003;52.084;5.224;2023-03-31T09:08:33;16.9;;;3.4;;
36833;SDS011;48003;52.084;5.224;2023-03-31T09:10:17;17.61;;;4.1;;
36833;SDS011;48003;52.084;5.224;2023-03-31T09:12:07;17.5;;;4.1;;
36833;SDS011;48003;52.084;5.224;2023-03-31T09:14:09;18.8;;;4.1;;
36833;SDS011;48003;52.084;5.224;2023-03-31T09:15:53;16.5;;;3.7;;
36833;SDS011;48003;52.084;5.224;2023-03-31T09:19:30;21.3;;;4.1;;
36833;SDS011;48003;52.084;5.224;2023-03-31T09:21:14;17.91;;;4.2;;
36833;SDS011;48003;52.084;5.224;2023-03-31T09:22:58;22.0;;;3.7;;
36833;SDS011;48003;52.084;5.224;2023-03-31T09:24:44;19.2;;;4.3;;
36833;SDS011;48003;52.084;5.224;2023-03-31T09:26:30;19.91;;;3.8;;
36833;SDS011;48003;52.084;5.224;2023-03-31T09:29:55;21.3;;;4.3;;
36833;SDS011;48003;52.084;5.224;2023-03-31T09:31:36;20.0;;;4.1;;
36833;SDS011;48003;52.084;5.224;2023-03-31T09:33:17;21.2;;;3.8;;
36833;SDS011;48003;52.084;5.224;2023-03-31T09:35:13;19.3;;;4.2;;
36833;SDS011;48003;52.084;5.224;2023-03-31T09:36:53;20.7;;;4.0;;
36833;SDS011;48003;52.084;5.224;2023-03-31T09:40:05;19.61;;;4.1;;
36833;SDS011;48003;52.084;5.224;2023-03-31T09:41:50;19.2;;;4.61;;
36833;SDS011;48003;52.084;5.224;2023-03-31T09:43:27;17.3;;;3.7;;
36833;SDS011;48003;52.084;5.224;2023-03-31T09:46:50;20.0;;;4.3;;
36833;SDS011;48003;52.084;5.224;2023-03-31T09:48:29;22.3;;;4.2;;
36833;SDS011;48003;52.084;5.224;2023-03-31T09:50:10;18.11;;;3.6;;
36833;SDS011;48003;52.084;5.224;2023-03-31T09:51:48;17.2;;;3.5;;
36833;SDS011;48003;52.084;5.224;2023-03-31T09:53:37;13.6;;;3.4;;
36833;SDS011;48003;52.084;5.224;2023-03-31T09:56:57;18.2;;;4.2;;
36833;SDS011;48003;52.084;5.224;2023-03-31T09:58:39;19.11;;;3.6;;
36833;SDS011;48003;52.084;5.224;2023-03-31T10:00:16;18.2;;;3.9;;
36833;SDS011;48003;52.084;5.224;2023-03-31T10:01:56;21.2;;;4.1;;
36833;SDS011;48003;52.084;5.224;2023-03-31T10:05:26;15.7;;;3.2;;
36833;SDS011;48003;52.084;5.224;2023-03-31T10:07:04;13.4;;;3.1;;
36833;SDS011;48003;52.084;5.224;2023-03-31T10:08:40;17.2;;;3.7;;
36833;SDS011;48003;52.084;5.224;2023-03-31T10:10:26;17.41;;;4.3;;
36833;SDS011;48003;52.084;5.224;2023-03-31T10:13:52;12.4;;;3.1;;
36833;SDS011;48003;52.084;5.224;2023-03-31T10:15:36;18.91;;;4.2;;
36833;SDS011;48003;52.084;5.224;2023-03-31T10:17:13;17.11;;;3.9;;
36833;SDS011;48003;52.084;5.224;2023-03-31T10:18:52;20.5;;;4.5;;
36833;SDS011;48003;52.084;5.224;2023-03-31T10:22:13;14.8;;;3.6;;
36833;SDS011;48003;52.084;5.224;2023-03-31T10:23:52;14.5;;;3.2;;
36833;SDS011;48003;52.084;5.224;2023-03-31T10:25:28;14.9;;;3.8;;
36833;SDS011;48003;52.084;5.224;2023-03-31T10:27:05;18.0;;;3.7;;
36833;SDS011;48003;52.084;5.224;2023-03-31T10:30:28;17.3;;;3.7;;
36833;SDS011;48003;52.084;5.224;2023-03-31T10:32:13;16.0;;;3.4;;
36833;SDS011;48003;52.084;5.224;2023-03-31T10:33:57;17.7;;;3.6;;
36833;SDS011;48003;52.084;5.224;2023-03-31T10:35:34;15.5;;;3.6;;
36833;SDS011;48003;52.084;5.224;2023-03-31T10:38:53;15.0;;;3.7;;
36833;SDS011;48003;52.084;5.224;2023-03-31T10:40:30;17.61;;;3.6;;
36833;SDS011;48003;52.084;5.224;2023-03-31T10:42:08;13.6;;;2.9;;
36833;SDS011;48003;52.084;5.224;2023-03-31T10:43:47;15.1;;;3.1;;
36833;SDS011;48003;52.084;5.224;2023-03-31T10:47:05;14.4;;;3.0;;
36833;SDS011;48003;52.084;5.224;2023-03-31T10:48:53;13.1;;;2.8;;
36833;SDS011;48003;52.084;5.224;2023-03-31T10:50:30;11.5;;;3.1;;
36833;SDS011;48003;52.084;5.224;2023-03-31T10:52:14;13.6;;;2.8;;
36833;SDS011;48003;52.084;5.224;2023-03-31T10:55:35;10.8;;;2.9;;
36833;SDS011;48003;52.084;5.224;2023-03-31T10:58:17;14.5;;;3.2;;
36833;SDS011;48003;52.084;5.224;2023-03-31T11:00:08;15.6;;;2.9;;
36833;SDS011;48003;52.084;5.224;2023-03-31T11:01:57;13.2;;;2.8;;
36833;SDS011;48003;52.084;5.224;2023-03-31T11:05:10;14.0;;;3.4;;
36833;SDS011;48003;52.084;5.224;2023-03-31T11:06:55;13.4;;;3.2;;
36833;SDS011;48003;52.084;5.224;2023-03-31T11:10:42;12.8;;;3.0;;
36833;SDS011;48003;52.084;5.224;2023-03-31T11:12:32;14.4;;;3.2;;
36833;SDS011;48003;52.084;5.224;2023-03-31T11:14:16;17.11;;;3.9;;
36833;SDS011;48003;52.084;5.224;2023-03-31T11:16:05;15.6;;;3.3;;
36833;SDS011;48003;52.084;5.224;2023-03-31T11:17:58;13.7;;;3.2;;
36833;SDS011;48003;52.084;5.224;2023-03-31T11:19:45;12.7;;;2.9;;
36833;SDS011;48003;52.084;5.224;2023-03-31T11:21:33;15.3;;;3.2;;
36833;SDS011;48003;52.084;5.224;2023-03-31T11:25:12;17.41;;;3.4;;
36833;SDS011;48003;52.084;5.224;2023-03-31T11:26:59;14.5;;;3.0;;
36833;SDS011;48003;52.084;5.224;2023-03-31T11:28:52;16.4;;;3.4;;
36833;SDS011;48003;52.084;5.224;2023-03-31T11:30:39;13.9;;;3.2;;
36833;SDS011;48003;52.084;5.224;2023-03-31T11:32:27;13.6;;;3.7;;
36833;SDS011;48003;52.084;5.224;2023-03-31T11:34:21;16.5;;;3.4;;
36833;SDS011;48003;52.084;5.224;2023-03-31T11:36:46;15.1;;;3.3;;
36833;SDS011;48003;52.084;5.224;2023-03-31T11:38:47;15.1;;;3.1;;
36833;SDS011;48003;52.084;5.224;2023-03-31T11:40:39;15.0;;;3.1;;
36833;SDS011;48003;52.084;5.224;2023-03-31T11:42:32;18.11;;;3.6;;
36833;SDS011;48003;52.084;5.224;2023-03-31T11:45:52;15.7;;;3.4;;
36833;SDS011;48003;52.084;5.224;2023-03-31T11:47:34;20.3;;;4.1;;
36833;SDS011;48003;52.084;5.224;2023-03-31T11:49:14;13.0;;;2.8;;
36833;SDS011;48003;52.084;5.224;2023-03-31T11:50:53;15.9;;;3.5;;
36833;SDS011;48003;52.084;5.224;2023-03-31T11:54:14;14.9;;;3.4;;
36833;SDS011;48003;52.084;5.224;2023-03-31T11:55:55;19.41;;;3.4;;
36833;SDS011;48003;52.084;5.224;2023-03-31T11:57:35;13.8;;;2.6;;
36833;SDS011;48003;52.084;5.224;2023-03-31T11:59:16;19.0;;;3.9;;
36833;SDS011;48003;52.084;5.224;2023-03-31T12:02:43;18.7;;;3.6;;
36833;SDS011;48003;52.084;5.224;2023-03-31T12:04:27;17.3;;;3.4;;
36833;SDS011;48003;52.084;5.224;2023-03-31T12:06:10;14.0;;;3.1;;
36833;SDS011;48003;52.084;5.224;2023-03-31T12:07:50;13.9;;;3.1;;
36833;SDS011;48003;52.084;5.224;2023-03-31T12:09:35;11.6;;;2.4;;
36833;SDS011;48003;52.084;5.224;2023-03-31T12:13:17;17.0;;;3.0;;
36833;SDS011;48003;52.084;5.224;2023-03-31T12:15:12;17.61;;;3.9;;
36833;SDS011;48003;52.084;5.224;2023-03-31T12:16:55;14.8;;;3.4;;
36833;SDS011;48003;52.084;5.224;2023-03-31T12:18:37;10.9;;;2.8;;
36833;SDS011;48003;52.084;5.224;2023-03-31T12:20:22;14.6;;;2.9;;
36833;SDS011;48003;52.084;5.224;2023-03-31T12:22:07;13.1;;;3.0;;
36833;SDS011;48003;52.084;5.224;2023-03-31T12:25:28;14.8;;;3.0;;
36833;SDS011;48003;52.084;5.224;2023-03-31T12:27:22;14.4;;;2.7;;
36833;SDS011;48003;52.084;5.224;2023-03-31T12:29:02;13.0;;;2.8;;
36833;SDS011;48003;52.084;5.224;2023-03-31T12:30:47;14.3;;;2.6;;
36833;SDS011;48003;52.084;5.224;2023-03-31T12:34:05;11.9;;;2.9;;
36833;SDS011;48003;52.084;5.224;2023-03-31T12:35:57;12.3;;;2.9;;
36833;SDS011;48003;52.084;5.224;2023-03-31T12:38:21;16.5;;;3.4;;
36833;SDS011;48003;52.084;5.224;2023-03-31T12:40:10;11.9;;;2.8;;
36833;SDS011;48003;52.084;5.224;2023-03-31T12:42:02;12.5;;;2.6;;
36833;SDS011;48003;52.084;5.224;2023-03-31T12:44:01;11.5;;;2.5;;
36833;SDS011;48003;52.084;5.224;2023-03-31T12:45:53;11.8;;;2.31;;
36833;SDS011;48003;52.084;5.224;2023-03-31T12:47:43;8.6;;;2.21;;
36833;SDS011;48003;52.084;5.224;2023-03-31T12:49:43;10.9;;;2.1;;
36833;SDS011;48003;52.084;5.224;2023-03-31T12:51:42;9.31;;;2.31;;
36833;SDS011;48003;52.084;5.224;2023-03-31T12:53:36;12.0;;;2.8;;
36833;SDS011;48003;52.084;5.224;2023-03-31T12:57:18;11.7;;;2.6;;
36833;SDS011;48003;52.084;5.224;2023-03-31T12:59:09;12.2;;;2.9;;
36833;SDS011;48003;52.084;5.224;2023-03-31T13:01:01;12.1;;;3.0;;
36833;SDS011;48003;52.084;5.224;2023-03-31T13:02:40;13.3;;;3.1;;
36833;SDS011;48003;52.084;5.224;2023-03-31T13:04:16;17.61;;;3.4;;